sensor_id;sensor_type;location;lat;lon;timestamp;P1;durP1;ratioP1;P2;durP2;ratioP2
66581;SDS011;53438;48.898;2.308;2022-12-29T00:02:03;3.57;;;0.80;;
66581;SDS011;53438;48.898;2.308;2022-12-29T00:04:28;2.17;;;0.67;;
66581;SDS011;53438;48.898;2.308;2022-12-29T00:06:53;2.53;;;0.60;;
66581;SDS011;53438;48.898;2.308;2022-12-29T00:09:19;3.05;;;0.60;;
66581;SDS011;53438;48.898;2.308;2022-12-29T00:11:45;1.65;;;0.60;;
66581;SDS011;53438;48.898;2.308;2022-12-29T00:14:10;3.03;;;0.70;;
66581;SDS011;53438;48.898;2.308;2022-12-29T00:16:55;3.33;;;0.70;;
66581;SDS011;53438;48.898;2.308;2022-12-29T00:19:21;3.60;;;0.77;;
66581;SDS011;53438;48.898;2.308;2022-12-29T00:22:06;6.35;;;1.33;;
66581;SDS011;53438;48.898;2.308;2022-12-29T00:24:49;2.20;;;0.83;;
66581;SDS011;53438;48.898;2.308;2022-12-29T00:27:30;2.88;;;0.80;;
66581;SDS011;53438;48.898;2.308;2022-12-29T00:30:20;4.07;;;1.92;;
66581;SDS011;53438;48.898;2.308;2022-12-29T00:33:25;2.67;;;0.95;;
66581;SDS011;53438;48.898;2.308;2022-12-29T00:36:16;5.82;;;0.93;;
66581;SDS011;53438;48.898;2.308;2022-12-29T00:38:51;3.37;;;0.90;;
66581;SDS011;53438;48.898;2.308;2022-12-29T00:41:42;3.80;;;0.80;;
66581;SDS011;53438;48.898;2.308;2022-12-29T00:44:26;3.28;;;1.00;;
66581;SDS011;53438;48.898;2.308;2022-12-29T00:46:51;5.57;;;1.17;;
66581;SDS011;53438;48.898;2.308;2022-12-29T00:49:16;4.00;;;1.30;;
66581;SDS011;53438;48.898;2.308;2022-12-29T00:52:04;2.85;;;0.90;;
66581;SDS011;53438;48.898;2.308;2022-12-29T00:54:32;1.75;;;0.80;;
66581;SDS011;53438;48.898;2.308;2022-12-29T00:56:59;4.45;;;1.40;;
66581;SDS011;53438;48.898;2.308;2022-12-29T00:59:26;3.27;;;0.93;;
66581;SDS011;53438;48.898;2.308;2022-12-29T04:00:47;4.07;;;0.77;;
66581;SDS011;53438;48.898;2.308;2022-12-29T04:03:13;3.60;;;0.80;;
66581;SDS011;53438;48.898;2.308;2022-12-29T04:05:38;7.53;;;1.37;;
66581;SDS011;53438;48.898;2.308;2022-12-29T04:08:03;7.37;;;1.17;;
66581;SDS011;53438;48.898;2.308;2022-12-29T04:10:29;8.47;;;0.90;;
66581;SDS011;53438;48.898;2.308;2022-12-29T04:12:54;4.43;;;0.93;;
66581;SDS011;53438;48.898;2.308;2022-12-29T04:15:20;6.60;;;0.60;;
66581;SDS011;53438;48.898;2.308;2022-12-29T04:17:45;5.93;;;1.05;;
66581;SDS011;53438;48.898;2.308;2022-12-29T04:20:10;6.17;;;0.83;;
66581;SDS011;53438;48.898;2.308;2022-12-29T04:23:02;6.73;;;1.43;;
66581;SDS011;53438;48.898;2.308;2022-12-29T04:25:30;5.75;;;1.10;;
66581;SDS011;53438;48.898;2.308;2022-12-29T04:27:56;8.93;;;1.00;;
66581;SDS011;53438;48.898;2.308;2022-12-29T04:30:21;4.97;;;0.50;;
66581;SDS011;53438;48.898;2.308;2022-12-29T04:32:47;5.07;;;0.68;;
66581;SDS011;53438;48.898;2.308;2022-12-29T04:35:12;6.43;;;0.80;;
66581;SDS011;53438;48.898;2.308;2022-12-29T04:37:38;5.03;;;0.60;;
66581;SDS011;53438;48.898;2.308;2022-12-29T04:40:03;5.03;;;0.83;;
66581;SDS011;53438;48.898;2.308;2022-12-29T04:42:29;5.73;;;0.97;;
66581;SDS011;53438;48.898;2.308;2022-12-29T04:44:54;11.98;;;0.98;;
66581;SDS011;53438;48.898;2.308;2022-12-29T04:47:19;9.17;;;1.27;;
66581;SDS011;53438;48.898;2.308;2022-12-29T04:49:45;3.97;;;0.83;;
66581;SDS011;53438;48.898;2.308;2022-12-29T04:52:10;4.13;;;0.70;;
66581;SDS011;53438;48.898;2.308;2022-12-29T04:54:36;5.83;;;0.90;;
66581;SDS011;53438;48.898;2.308;2022-12-29T04:57:01;4.27;;;0.67;;
66581;SDS011;53438;48.898;2.308;2022-12-29T04:59:26;5.93;;;0.50;;
66581;SDS011;53438;48.898;2.308;2022-12-29T05:01:52;2.75;;;0.70;;
66581;SDS011;53438;48.898;2.308;2022-12-29T05:04:17;4.90;;;1.07;;
66581;SDS011;53438;48.898;2.308;2022-12-29T05:06:42;5.73;;;0.87;;
66581;SDS011;53438;48.898;2.308;2022-12-29T05:09:08;4.40;;;0.77;;
66581;SDS011;53438;48.898;2.308;2022-12-29T05:11:36;6.87;;;0.80;;
66581;SDS011;53438;48.898;2.308;2022-12-29T05:14:01;6.43;;;0.82;;
66581;SDS011;53438;48.898;2.308;2022-12-29T05:16:26;3.53;;;0.70;;
66581;SDS011;53438;48.898;2.308;2022-12-29T05:18:51;5.83;;;0.77;;
66581;SDS011;53438;48.898;2.308;2022-12-29T05:21:17;7.07;;;0.73;;
66581;SDS011;53438;48.898;2.308;2022-12-29T05:23:42;3.53;;;0.80;;
66581;SDS011;53438;48.898;2.308;2022-12-29T05:26:07;6.63;;;0.80;;
66581;SDS011;53438;48.898;2.308;2022-12-29T05:28:33;4.53;;;0.55;;
66581;SDS011;53438;48.898;2.308;2022-12-29T05:30:58;9.32;;;1.20;;
66581;SDS011;53438;48.898;2.308;2022-12-29T05:33:24;3.40;;;0.73;;
66581;SDS011;53438;48.898;2.308;2022-12-29T05:35:49;8.17;;;1.00;;
66581;SDS011;53438;48.898;2.308;2022-12-29T05:38:14;6.10;;;0.90;;
66581;SDS011;53438;48.898;2.308;2022-12-29T05:40:40;6.20;;;1.07;;
66581;SDS011;53438;48.898;2.308;2022-12-29T05:43:05;6.53;;;0.77;;
66581;SDS011;53438;48.898;2.308;2022-12-29T05:45:30;3.15;;;0.50;;
66581;SDS011;53438;48.898;2.308;2022-12-29T05:47:56;7.55;;;1.52;;
66581;SDS011;53438;48.898;2.308;2022-12-29T05:50:21;7.07;;;1.00;;
66581;SDS011;53438;48.898;2.308;2022-12-29T05:52:46;6.73;;;1.10;;
66581;SDS011;53438;48.898;2.308;2022-12-29T05:55:12;6.83;;;0.97;;
66581;SDS011;53438;48.898;2.308;2022-12-29T05:57:38;8.27;;;1.25;;
66581;SDS011;53438;48.898;2.308;2022-12-29T06:00:03;7.97;;;0.70;;
66581;SDS011;53438;48.898;2.308;2022-12-29T06:02:30;10.57;;;0.90;;
66581;SDS011;53438;48.898;2.308;2022-12-29T06:04:55;5.03;;;0.83;;
66581;SDS011;53438;48.898;2.308;2022-12-29T06:07:20;5.80;;;1.00;;
66581;SDS011;53438;48.898;2.308;2022-12-29T06:09:46;7.43;;;0.80;;
66581;SDS011;53438;48.898;2.308;2022-12-29T06:12:11;9.90;;;0.90;;
66581;SDS011;53438;48.898;2.308;2022-12-29T06:14:36;5.30;;;1.00;;
66581;SDS011;53438;48.898;2.308;2022-12-29T06:17:02;8.40;;;1.38;;
66581;SDS011;53438;48.898;2.308;2022-12-29T06:19:27;9.00;;;1.63;;
66581;SDS011;53438;48.898;2.308;2022-12-29T06:21:53;7.50;;;1.03;;
66581;SDS011;53438;48.898;2.308;2022-12-29T06:24:18;11.83;;;1.37;;
66581;SDS011;53438;48.898;2.308;2022-12-29T06:26:44;10.70;;;1.50;;
66581;SDS011;53438;48.898;2.308;2022-12-29T06:29:09;10.83;;;1.40;;
66581;SDS011;53438;48.898;2.308;2022-12-29T06:31:34;9.90;;;1.40;;
66581;SDS011;53438;48.898;2.308;2022-12-29T06:34:00;12.47;;;1.67;;
66581;SDS011;53438;48.898;2.308;2022-12-29T06:36:25;4.47;;;1.07;;
66581;SDS011;53438;48.898;2.308;2022-12-29T06:38:51;7.03;;;1.27;;
66581;SDS011;53438;48.898;2.308;2022-12-29T06:41:20;7.35;;;1.02;;
66581;SDS011;53438;48.898;2.308;2022-12-29T06:43:45;8.32;;;1.20;;
66581;SDS011;53438;48.898;2.308;2022-12-29T06:46:11;6.87;;;1.10;;
66581;SDS011;53438;48.898;2.308;2022-12-29T06:48:36;9.13;;;1.13;;
66581;SDS011;53438;48.898;2.308;2022-12-29T06:51:02;9.90;;;1.30;;
66581;SDS011;53438;48.898;2.308;2022-12-29T06:53:27;9.38;;;1.52;;
66581;SDS011;53438;48.898;2.308;2022-12-29T06:55:52;7.27;;;0.80;;
66581;SDS011;53438;48.898;2.308;2022-12-29T06:58:18;4.40;;;0.90;;
66581;SDS011;53438;48.898;2.308;2022-12-29T07:00:43;7.17;;;1.30;;
66581;SDS011;53438;48.898;2.308;2022-12-29T07:03:09;6.53;;;1.02;;
66581;SDS011;53438;48.898;2.308;2022-12-29T07:05:34;9.20;;;1.03;;
66581;SDS011;53438;48.898;2.308;2022-12-29T07:07:59;11.77;;;1.20;;
66581;SDS011;53438;48.898;2.308;2022-12-29T07:10:25;4.57;;;0.90;;
66581;SDS011;53438;48.898;2.308;2022-12-29T07:12:51;7.78;;;0.80;;
66581;SDS011;53438;48.898;2.308;2022-12-29T07:15:16;7.40;;;0.90;;
66581;SDS011;53438;48.898;2.308;2022-12-29T07:17:42;5.83;;;1.07;;
66581;SDS011;53438;48.898;2.308;2022-12-29T07:20:07;7.77;;;1.00;;
66581;SDS011;53438;48.898;2.308;2022-12-29T07:22:33;9.68;;;1.05;;
66581;SDS011;53438;48.898;2.308;2022-12-29T07:24:58;6.13;;;1.13;;
66581;SDS011;53438;48.898;2.308;2022-12-29T07:27:24;7.23;;;1.07;;
66581;SDS011;53438;48.898;2.308;2022-12-29T07:29:49;4.90;;;0.80;;
66581;SDS011;53438;48.898;2.308;2022-12-29T07:32:14;8.02;;;1.10;;
66581;SDS011;53438;48.898;2.308;2022-12-29T07:34:40;6.70;;;1.03;;
66581;SDS011;53438;48.898;2.308;2022-12-29T07:37:05;8.80;;;1.10;;
66581;SDS011;53438;48.898;2.308;2022-12-29T07:39:31;6.13;;;0.90;;
66581;SDS011;53438;48.898;2.308;2022-12-29T07:41:56;9.02;;;2.20;;
66581;SDS011;53438;48.898;2.308;2022-12-29T07:44:22;9.93;;;1.23;;
66581;SDS011;53438;48.898;2.308;2022-12-29T07:46:47;7.43;;;1.03;;
66581;SDS011;53438;48.898;2.308;2022-12-29T07:49:12;11.83;;;1.33;;
66581;SDS011;53438;48.898;2.308;2022-12-29T07:51:38;9.63;;;2.07;;
66581;SDS011;53438;48.898;2.308;2022-12-29T07:54:03;5.57;;;0.90;;
66581;SDS011;53438;48.898;2.308;2022-12-29T07:56:29;10.43;;;1.67;;
66581;SDS011;53438;48.898;2.308;2022-12-29T07:58:54;6.35;;;0.95;;
66581;SDS011;53438;48.898;2.308;2022-12-29T08:01:19;11.10;;;1.17;;
66581;SDS011;53438;48.898;2.308;2022-12-29T08:03:46;7.53;;;1.30;;
66581;SDS011;53438;48.898;2.308;2022-12-29T08:06:11;7.97;;;1.47;;
66581;SDS011;53438;48.898;2.308;2022-12-29T08:08:37;8.20;;;0.97;;
66581;SDS011;53438;48.898;2.308;2022-12-29T08:11:03;7.40;;;1.25;;
66581;SDS011;53438;48.898;2.308;2022-12-29T08:13:29;8.93;;;1.00;;
66581;SDS011;53438;48.898;2.308;2022-12-29T08:15:57;10.50;;;1.30;;
66581;SDS011;53438;48.898;2.308;2022-12-29T08:18:22;5.38;;;1.00;;
66581;SDS011;53438;48.898;2.308;2022-12-29T08:20:48;8.90;;;1.53;;
66581;SDS011;53438;48.898;2.308;2022-12-29T08:23:13;5.37;;;1.00;;
66581;SDS011;53438;48.898;2.308;2022-12-29T08:25:38;11.53;;;2.30;;
66581;SDS011;53438;48.898;2.308;2022-12-29T08:28:04;10.83;;;1.50;;
66581;SDS011;53438;48.898;2.308;2022-12-29T08:30:29;10.07;;;1.60;;
66581;SDS011;53438;48.898;2.308;2022-12-29T08:32:54;11.53;;;2.10;;
66581;SDS011;53438;48.898;2.308;2022-12-29T08:35:20;7.60;;;1.38;;
66581;SDS011;53438;48.898;2.308;2022-12-29T08:37:45;12.60;;;1.87;;
66581;SDS011;53438;48.898;2.308;2022-12-29T08:40:10;9.17;;;1.60;;
66581;SDS011;53438;48.898;2.308;2022-12-29T08:42:36;9.43;;;1.80;;
66581;SDS011;53438;48.898;2.308;2022-12-29T08:45:01;11.40;;;1.90;;
66581;SDS011;53438;48.898;2.308;2022-12-29T08:47:27;15.38;;;2.03;;
66581;SDS011;53438;48.898;2.308;2022-12-29T08:49:53;11.63;;;1.70;;
66581;SDS011;53438;48.898;2.308;2022-12-29T08:52:18;14.73;;;1.80;;
66581;SDS011;53438;48.898;2.308;2022-12-29T08:54:44;10.52;;;1.48;;
66581;SDS011;53438;48.898;2.308;2022-12-29T08:57:09;13.23;;;1.70;;
66581;SDS011;53438;48.898;2.308;2022-12-29T08:59:34;11.77;;;1.60;;
66581;SDS011;53438;48.898;2.308;2022-12-29T09:02:00;8.87;;;1.77;;
66581;SDS011;53438;48.898;2.308;2022-12-29T09:04:26;12.65;;;1.92;;
66581;SDS011;53438;48.898;2.308;2022-12-29T09:06:52;7.97;;;1.37;;
66581;SDS011;53438;48.898;2.308;2022-12-29T09:09:17;10.95;;;1.40;;
66581;SDS011;53438;48.898;2.308;2022-12-29T09:11:43;11.60;;;2.03;;
66581;SDS011;53438;48.898;2.308;2022-12-29T09:14:09;12.20;;;1.40;;
66581;SDS011;53438;48.898;2.308;2022-12-29T09:16:34;9.10;;;1.93;;
66581;SDS011;53438;48.898;2.308;2022-12-29T09:18:59;14.90;;;2.40;;
66581;SDS011;53438;48.898;2.308;2022-12-29T09:21:25;7.38;;;1.20;;
66581;SDS011;53438;48.898;2.308;2022-12-29T09:23:51;10.60;;;1.50;;
66581;SDS011;53438;48.898;2.308;2022-12-29T09:26:16;12.70;;;2.13;;
66581;SDS011;53438;48.898;2.308;2022-12-29T09:28:41;18.73;;;2.17;;
66581;SDS011;53438;48.898;2.308;2022-12-29T09:31:09;9.95;;;1.33;;
66581;SDS011;53438;48.898;2.308;2022-12-29T09:33:34;12.70;;;2.10;;
66581;SDS011;53438;48.898;2.308;2022-12-29T09:36:00;10.70;;;1.43;;
66581;SDS011;53438;48.898;2.308;2022-12-29T09:38:25;10.70;;;1.70;;
66581;SDS011;53438;48.898;2.308;2022-12-29T09:40:53;10.18;;;1.40;;
66581;SDS011;53438;48.898;2.308;2022-12-29T09:43:27;12.43;;;1.88;;
66581;SDS011;53438;48.898;2.308;2022-12-29T09:46:19;10.45;;;1.63;;
66581;SDS011;53438;48.898;2.308;2022-12-29T09:49:15;12.43;;;1.70;;
66581;SDS011;53438;48.898;2.308;2022-12-29T09:51:52;11.68;;;1.70;;
66581;SDS011;53438;48.898;2.308;2022-12-29T09:54:24;13.23;;;1.50;;
66581;SDS011;53438;48.898;2.308;2022-12-29T09:57:01;7.35;;;1.35;;
66581;SDS011;53438;48.898;2.308;2022-12-29T09:59:38;13.30;;;1.73;;
66581;SDS011;53438;48.898;2.308;2022-12-29T10:04:37;11.27;;;2.00;;
66581;SDS011;53438;48.898;2.308;2022-12-29T10:07:10;11.48;;;1.67;;
66581;SDS011;53438;48.898;2.308;2022-12-29T10:18:03;11.07;;;1.55;;
66581;SDS011;53438;48.898;2.308;2022-12-29T10:20:53;9.68;;;1.70;;
66581;SDS011;53438;48.898;2.308;2022-12-29T10:23:23;15.43;;;1.70;;
66581;SDS011;53438;48.898;2.308;2022-12-29T10:25:56;11.88;;;2.10;;
66581;SDS011;53438;48.898;2.308;2022-12-29T10:30:48;11.37;;;1.70;;
66581;SDS011;53438;48.898;2.308;2022-12-29T10:33:21;15.48;;;1.67;;
66581;SDS011;53438;48.898;2.308;2022-12-29T10:35:50;12.90;;;1.88;;
66581;SDS011;53438;48.898;2.308;2022-12-29T10:38:26;12.55;;;1.55;;
66581;SDS011;53438;48.898;2.308;2022-12-29T10:41:00;10.60;;;1.70;;
66581;SDS011;53438;48.898;2.308;2022-12-29T10:43:44;10.30;;;1.55;;
66581;SDS011;53438;48.898;2.308;2022-12-29T10:46:21;16.27;;;2.75;;
66581;SDS011;53438;48.898;2.308;2022-12-29T10:48:50;11.48;;;2.08;;
66581;SDS011;53438;48.898;2.308;2022-12-29T10:51:25;16.27;;;2.10;;
66581;SDS011;53438;48.898;2.308;2022-12-29T10:54:03;12.60;;;1.90;;
66581;SDS011;53438;48.898;2.308;2022-12-29T10:58:57;8.87;;;1.63;;
66581;SDS011;53438;48.898;2.308;2022-12-29T11:01:29;15.32;;;2.78;;
66581;SDS011;53438;48.898;2.308;2022-12-29T11:06:41;9.70;;;1.92;;
66581;SDS011;53438;48.898;2.308;2022-12-29T11:09:21;13.55;;;1.90;;
66581;SDS011;53438;48.898;2.308;2022-12-29T11:11:56;18.50;;;2.47;;
66581;SDS011;53438;48.898;2.308;2022-12-29T11:14:25;12.70;;;1.90;;
66581;SDS011;53438;48.898;2.308;2022-12-29T11:16:59;12.37;;;1.73;;
66581;SDS011;53438;48.898;2.308;2022-12-29T11:19:29;11.88;;;1.63;;
66581;SDS011;53438;48.898;2.308;2022-12-29T11:22:11;10.43;;;2.30;;
66581;SDS011;53438;48.898;2.308;2022-12-29T11:24:52;14.75;;;2.47;;
66581;SDS011;53438;48.898;2.308;2022-12-29T11:27:25;12.30;;;1.98;;
66581;SDS011;53438;48.898;2.308;2022-12-29T11:29:52;10.70;;;2.10;;
66581;SDS011;53438;48.898;2.308;2022-12-29T11:32:22;8.63;;;1.67;;
66581;SDS011;53438;48.898;2.308;2022-12-29T11:34:49;13.25;;;1.70;;
66581;SDS011;53438;48.898;2.308;2022-12-29T11:42:20;10.77;;;2.25;;
66581;SDS011;53438;48.898;2.308;2022-12-29T11:44:49;11.70;;;2.05;;
66581;SDS011;53438;48.898;2.308;2022-12-29T11:47:23;10.52;;;2.05;;
66581;SDS011;53438;48.898;2.308;2022-12-29T11:49:53;14.82;;;2.80;;
66581;SDS011;53438;48.898;2.308;2022-12-29T11:52:23;14.73;;;2.77;;
66581;SDS011;53438;48.898;2.308;2022-12-29T11:54:50;11.73;;;1.85;;
66581;SDS011;53438;48.898;2.308;2022-12-29T11:57:17;10.82;;;2.10;;
66581;SDS011;53438;48.898;2.308;2022-12-29T11:59:49;16.63;;;2.60;;
66581;SDS011;53438;48.898;2.308;2022-12-29T12:07:50;15.75;;;2.00;;
66581;SDS011;53438;48.898;2.308;2022-12-29T12:10:22;10.38;;;1.83;;
66581;SDS011;53438;48.898;2.308;2022-12-29T12:15:25;16.30;;;3.05;;
66581;SDS011;53438;48.898;2.308;2022-12-29T12:28:54;10.82;;;1.70;;
66581;SDS011;53438;48.898;2.308;2022-12-29T12:31:32;15.20;;;2.10;;
66581;SDS011;53438;48.898;2.308;2022-12-29T12:34:44;12.30;;;1.77;;
66581;SDS011;53438;48.898;2.308;2022-12-29T12:45:50;12.17;;;2.80;;
66581;SDS011;53438;48.898;2.308;2022-12-29T12:48:34;15.10;;;2.67;;
66581;SDS011;53438;48.898;2.308;2022-12-29T12:54:03;18.20;;;2.15;;
66581;SDS011;53438;48.898;2.308;2022-12-29T12:59:30;16.27;;;3.10;;
66581;SDS011;53438;48.898;2.308;2022-12-29T13:18:42;13.18;;;2.42;;
66581;SDS011;53438;48.898;2.308;2022-12-29T13:21:20;12.45;;;2.58;;
66581;SDS011;53438;48.898;2.308;2022-12-29T13:27:25;16.07;;;2.27;;
66581;SDS011;53438;48.898;2.308;2022-12-29T13:30:04;17.42;;;2.88;;
66581;SDS011;53438;48.898;2.308;2022-12-29T13:32:37;10.32;;;1.90;;
66581;SDS011;53438;48.898;2.308;2022-12-29T13:40:41;15.50;;;1.90;;
66581;SDS011;53438;48.898;2.308;2022-12-29T13:43:12;12.00;;;2.28;;
66581;SDS011;53438;48.898;2.308;2022-12-29T13:45:40;13.52;;;1.90;;
66581;SDS011;53438;48.898;2.308;2022-12-29T13:50:54;14.48;;;2.35;;
66581;SDS011;53438;48.898;2.308;2022-12-29T13:53:29;15.13;;;2.03;;
66581;SDS011;53438;48.898;2.308;2022-12-29T13:56:07;11.30;;;1.92;;
66581;SDS011;53438;48.898;2.308;2022-12-29T13:58:39;16.50;;;2.10;;
66581;SDS011;53438;48.898;2.308;2022-12-29T14:01:17;15.05;;;2.15;;
66581;SDS011;53438;48.898;2.308;2022-12-29T14:03:51;13.05;;;1.90;;
66581;SDS011;53438;48.898;2.308;2022-12-29T14:06:20;19.33;;;2.17;;
66581;SDS011;53438;48.898;2.308;2022-12-29T14:08:47;11.05;;;1.60;;
66581;SDS011;53438;48.898;2.308;2022-12-29T14:11:14;16.25;;;2.30;;
66581;SDS011;53438;48.898;2.308;2022-12-29T14:13:41;13.38;;;1.60;;
66581;SDS011;53438;48.898;2.308;2022-12-29T14:16:31;13.57;;;2.97;;
66581;SDS011;53438;48.898;2.308;2022-12-29T14:18:57;15.13;;;3.03;;
66581;SDS011;53438;48.898;2.308;2022-12-29T14:21:30;12.27;;;2.70;;
66581;SDS011;53438;48.898;2.308;2022-12-29T14:26:51;13.43;;;1.90;;
66581;SDS011;53438;48.898;2.308;2022-12-29T14:31:46;21.43;;;2.93;;
66581;SDS011;53438;48.898;2.308;2022-12-29T14:36:38;12.80;;;2.60;;
66581;SDS011;53438;48.898;2.308;2022-12-29T14:39:25;10.90;;;2.20;;
66581;SDS011;53438;48.898;2.308;2022-12-29T14:44:45;16.80;;;3.30;;
66581;SDS011;53438;48.898;2.308;2022-12-29T14:49:55;10.53;;;2.13;;
66581;SDS011;53438;48.898;2.308;2022-12-29T14:52:22;19.15;;;4.43;;
66581;SDS011;53438;48.898;2.308;2022-12-29T14:54:54;15.32;;;2.55;;
66581;SDS011;53438;48.898;2.308;2022-12-29T14:57:35;14.40;;;2.42;;
66581;SDS011;53438;48.898;2.308;2022-12-29T15:00:05;14.35;;;4.00;;
66581;SDS011;53438;48.898;2.308;2022-12-29T15:02:33;16.93;;;2.73;;
66581;SDS011;53438;48.898;2.308;2022-12-29T15:05:03;8.07;;;2.25;;
66581;SDS011;53438;48.898;2.308;2022-12-29T15:07:30;12.45;;;2.13;;
66581;SDS011;53438;48.898;2.308;2022-12-29T15:10:03;11.10;;;2.35;;
66581;SDS011;53438;48.898;2.308;2022-12-29T15:12:36;12.38;;;2.78;;
66581;SDS011;53438;48.898;2.308;2022-12-29T15:17:45;12.30;;;1.85;;
66581;SDS011;53438;48.898;2.308;2022-12-29T15:20:14;12.90;;;1.63;;
66581;SDS011;53438;48.898;2.308;2022-12-29T15:22:43;12.82;;;1.73;;
66581;SDS011;53438;48.898;2.308;2022-12-29T15:25:14;13.73;;;1.98;;
66581;SDS011;53438;48.898;2.308;2022-12-29T15:27:42;11.88;;;1.98;;
66581;SDS011;53438;48.898;2.308;2022-12-29T15:30:12;11.25;;;2.22;;
66581;SDS011;53438;48.898;2.308;2022-12-29T15:32:40;17.87;;;2.17;;
66581;SDS011;53438;48.898;2.308;2022-12-29T15:37:50;10.18;;;1.90;;
66581;SDS011;53438;48.898;2.308;2022-12-29T15:40:28;7.47;;;1.47;;
66581;SDS011;53438;48.898;2.308;2022-12-29T15:45:43;10.40;;;2.28;;
66581;SDS011;53438;48.898;2.308;2022-12-29T15:48:16;13.43;;;1.93;;
66581;SDS011;53438;48.898;2.308;2022-12-29T15:50:45;13.02;;;2.10;;
66581;SDS011;53438;48.898;2.308;2022-12-29T15:53:12;11.83;;;1.97;;
66581;SDS011;53438;48.898;2.308;2022-12-29T15:55:50;13.90;;;2.38;;
66581;SDS011;53438;48.898;2.308;2022-12-29T15:58:24;13.13;;;2.53;;
66581;SDS011;53438;48.898;2.308;2022-12-29T16:00:52;14.70;;;2.40;;
66581;SDS011;53438;48.898;2.308;2022-12-29T16:03:23;11.27;;;1.45;;
66581;SDS011;53438;48.898;2.308;2022-12-29T16:05:52;10.90;;;1.60;;
66581;SDS011;53438;48.898;2.308;2022-12-29T16:08:21;8.68;;;1.23;;
66581;SDS011;53438;48.898;2.308;2022-12-29T16:10:57;12.30;;;1.67;;
66581;SDS011;53438;48.898;2.308;2022-12-29T16:13:26;12.27;;;1.58;;
66581;SDS011;53438;48.898;2.308;2022-12-29T16:16:17;13.65;;;1.48;;
66581;SDS011;53438;48.898;2.308;2022-12-29T16:18:44;9.27;;;1.80;;
66581;SDS011;53438;48.898;2.308;2022-12-29T16:21:26;11.48;;;1.70;;
66581;SDS011;53438;48.898;2.308;2022-12-29T16:23:55;10.60;;;1.85;;
66581;SDS011;53438;48.898;2.308;2022-12-29T16:26:24;6.78;;;1.88;;
66581;SDS011;53438;48.898;2.308;2022-12-29T16:28:51;8.00;;;1.37;;
66581;SDS011;53438;48.898;2.308;2022-12-29T16:31:36;10.43;;;1.58;;
66581;SDS011;53438;48.898;2.308;2022-12-29T16:34:24;14.90;;;3.90;;
66581;SDS011;53438;48.898;2.308;2022-12-29T16:36:54;11.23;;;2.00;;
66581;SDS011;53438;48.898;2.308;2022-12-29T16:39:28;9.75;;;2.20;;
66581;SDS011;53438;48.898;2.308;2022-12-29T16:41:56;12.60;;;2.45;;
66581;SDS011;53438;48.898;2.308;2022-12-29T16:46:59;11.20;;;2.80;;
66581;SDS011;53438;48.898;2.308;2022-12-29T16:49:29;10.23;;;2.83;;
66581;SDS011;53438;48.898;2.308;2022-12-29T16:51:56;14.32;;;3.33;;
66581;SDS011;53438;48.898;2.308;2022-12-29T16:54:23;8.97;;;2.47;;
66581;SDS011;53438;48.898;2.308;2022-12-29T16:56:51;15.48;;;2.92;;
66581;SDS011;53438;48.898;2.308;2022-12-29T17:01:50;12.18;;;2.88;;
66581;SDS011;53438;48.898;2.308;2022-12-29T17:04:16;13.60;;;2.57;;
66581;SDS011;53438;48.898;2.308;2022-12-29T17:06:41;7.67;;;2.30;;
66581;SDS011;53438;48.898;2.308;2022-12-29T17:09:17;12.50;;;2.07;;
66581;SDS011;53438;48.898;2.308;2022-12-29T17:11:54;8.10;;;1.77;;
66581;SDS011;53438;48.898;2.308;2022-12-29T17:17:12;11.45;;;2.25;;
66581;SDS011;53438;48.898;2.308;2022-12-29T17:19:56;9.20;;;1.87;;
66581;SDS011;53438;48.898;2.308;2022-12-29T17:22:27;8.98;;;1.88;;
66581;SDS011;53438;48.898;2.308;2022-12-29T17:24:53;13.13;;;2.03;;
66581;SDS011;53438;48.898;2.308;2022-12-29T17:30:05;12.50;;;2.50;;
66581;SDS011;53438;48.898;2.308;2022-12-29T17:32:36;12.35;;;2.22;;
66581;SDS011;53438;48.898;2.308;2022-12-29T17:35:03;10.07;;;2.20;;
66581;SDS011;53438;48.898;2.308;2022-12-29T17:37:32;12.13;;;2.10;;
66581;SDS011;53438;48.898;2.308;2022-12-29T17:40:00;10.30;;;2.17;;
66581;SDS011;53438;48.898;2.308;2022-12-29T17:42:25;14.48;;;3.65;;
66581;SDS011;53438;48.898;2.308;2022-12-29T17:44:51;10.93;;;2.50;;
66581;SDS011;53438;48.898;2.308;2022-12-29T17:47:16;8.27;;;2.03;;
66581;SDS011;53438;48.898;2.308;2022-12-29T17:49:42;7.72;;;1.92;;
66581;SDS011;53438;48.898;2.308;2022-12-29T17:52:13;12.10;;;2.07;;
66581;SDS011;53438;48.898;2.308;2022-12-29T17:54:41;11.95;;;2.50;;
66581;SDS011;53438;48.898;2.308;2022-12-29T17:57:14;13.82;;;2.95;;
66581;SDS011;53438;48.898;2.308;2022-12-29T17:59:40;15.40;;;3.03;;
66581;SDS011;53438;48.898;2.308;2022-12-29T18:02:18;9.65;;;2.03;;
66581;SDS011;53438;48.898;2.308;2022-12-29T18:04:49;14.00;;;2.07;;
66581;SDS011;53438;48.898;2.308;2022-12-29T18:07:14;14.48;;;2.17;;
66581;SDS011;53438;48.898;2.308;2022-12-29T18:09:41;12.93;;;2.40;;
66581;SDS011;53438;48.898;2.308;2022-12-29T18:12:09;13.30;;;2.43;;
66581;SDS011;53438;48.898;2.308;2022-12-29T18:15:02;10.00;;;2.83;;
66581;SDS011;53438;48.898;2.308;2022-12-29T18:17:28;12.40;;;2.20;;
66581;SDS011;53438;48.898;2.308;2022-12-29T18:19:54;11.40;;;2.57;;
66581;SDS011;53438;48.898;2.308;2022-12-29T18:22:20;12.18;;;2.17;;
66581;SDS011;53438;48.898;2.308;2022-12-29T18:24:50;10.02;;;2.13;;
66581;SDS011;53438;48.898;2.308;2022-12-29T18:27:15;10.43;;;2.20;;
66581;SDS011;53438;48.898;2.308;2022-12-29T18:29:43;14.82;;;2.67;;
66581;SDS011;53438;48.898;2.308;2022-12-29T18:32:12;14.60;;;2.00;;
66581;SDS011;53438;48.898;2.308;2022-12-29T18:34:39;16.35;;;2.45;;
66581;SDS011;53438;48.898;2.308;2022-12-29T18:37:05;10.70;;;2.03;;
66581;SDS011;53438;48.898;2.308;2022-12-29T18:39:31;17.53;;;3.20;;
66581;SDS011;53438;48.898;2.308;2022-12-29T18:41:56;18.35;;;3.63;;
66581;SDS011;53438;48.898;2.308;2022-12-29T18:44:21;13.73;;;2.33;;
66581;SDS011;53438;48.898;2.308;2022-12-29T18:46:48;16.00;;;2.90;;
66581;SDS011;53438;48.898;2.308;2022-12-29T18:49:14;11.52;;;2.55;;
66581;SDS011;53438;48.898;2.308;2022-12-29T18:51:39;11.53;;;2.60;;
66581;SDS011;53438;48.898;2.308;2022-12-29T18:54:05;13.13;;;2.67;;
66581;SDS011;53438;48.898;2.308;2022-12-29T18:56:30;17.88;;;3.13;;
66581;SDS011;53438;48.898;2.308;2022-12-29T18:58:56;21.17;;;6.40;;
66581;SDS011;53438;48.898;2.308;2022-12-29T19:01:22;10.20;;;2.50;;
66581;SDS011;53438;48.898;2.308;2022-12-29T19:03:49;18.83;;;4.80;;
66581;SDS011;53438;48.898;2.308;2022-12-29T19:06:15;10.93;;;2.88;;
66581;SDS011;53438;48.898;2.308;2022-12-29T19:08:41;12.50;;;3.13;;
66581;SDS011;53438;48.898;2.308;2022-12-29T19:11:07;13.98;;;2.45;;
66581;SDS011;53438;48.898;2.308;2022-12-29T19:13:32;11.80;;;2.93;;
66581;SDS011;53438;48.898;2.308;2022-12-29T19:15:58;16.07;;;3.17;;
66581;SDS011;53438;48.898;2.308;2022-12-29T19:18:24;16.95;;;3.80;;
66581;SDS011;53438;48.898;2.308;2022-12-29T19:20:52;13.05;;;2.55;;
66581;SDS011;53438;48.898;2.308;2022-12-29T19:23:19;14.60;;;2.90;;
66581;SDS011;53438;48.898;2.308;2022-12-29T19:25:47;18.33;;;3.20;;
66581;SDS011;53438;48.898;2.308;2022-12-29T19:28:17;14.95;;;2.72;;
66581;SDS011;53438;48.898;2.308;2022-12-29T19:30:44;14.38;;;2.78;;
66581;SDS011;53438;48.898;2.308;2022-12-29T19:33:11;17.75;;;3.55;;
66581;SDS011;53438;48.898;2.308;2022-12-29T19:35:37;19.37;;;2.63;;
66581;SDS011;53438;48.898;2.308;2022-12-29T19:38:02;12.65;;;2.97;;
66581;SDS011;53438;48.898;2.308;2022-12-29T19:40:28;11.53;;;2.87;;
66581;SDS011;53438;48.898;2.308;2022-12-29T19:42:55;13.27;;;2.55;;
66581;SDS011;53438;48.898;2.308;2022-12-29T19:45:21;19.90;;;3.40;;
66581;SDS011;53438;48.898;2.308;2022-12-29T19:47:46;14.38;;;3.25;;
66581;SDS011;53438;48.898;2.308;2022-12-29T19:50:13;11.80;;;2.77;;